sensor_id;sensor_type;location;lat;lon;timestamp;temperature;humidity
15765;DHT22;7983;50.744;7.086;2022-07-29T00:01:14;21.40;74.10
15765;DHT22;7983;50.744;7.086;2022-07-29T00:03:40;21.50;74.50
15765;DHT22;7983;50.744;7.086;2022-07-29T00:06:08;21.40;74.10
15765;DHT22;7983;50.744;7.086;2022-07-29T00:08:36;21.40;74.20
15765;DHT22;7983;50.744;7.086;2022-07-29T00:11:02;21.40;74.20
15765;DHT22;7983;50.744;7.086;2022-07-29T00:13:28;21.40;74.30
15765;DHT22;7983;50.744;7.086;2022-07-29T00:15:55;21.40;74.40
15765;DHT22;7983;50.744;7.086;2022-07-29T00:18:21;21.40;74.60
15765;DHT22;7983;50.744;7.086;2022-07-29T00:20:47;21.40;74.70
15765;DHT22;7983;50.744;7.086;2022-07-29T00:23:12;21.50;74.90
15765;DHT22;7983;50.744;7.086;2022-07-29T00:25:42;21.50;75.00
15765;DHT22;7983;50.744;7.086;2022-07-29T00:28:08;21.50;75.00
15765;DHT22;7983;50.744;7.086;2022-07-29T00:30:36;21.40;74.90
15765;DHT22;7983;50.744;7.086;2022-07-29T00:33:04;21.40;75.00
15765;DHT22;7983;50.744;7.086;2022-07-29T00:35:29;21.40;75.20
15765;DHT22;7983;50.744;7.086;2022-07-29T00:38:14;21.40;75.40
15765;DHT22;7983;50.744;7.086;2022-07-29T00:40:41;21.40;76.00
15765;DHT22;7983;50.744;7.086;2022-07-29T00:43:07;21.30;75.70
15765;DHT22;7983;50.744;7.086;2022-07-29T00:45:33;21.30;75.80
15765;DHT22;7983;50.744;7.086;2022-07-29T00:48:01;21.30;76.00
15765;DHT22;7983;50.744;7.086;2022-07-29T00:50:28;21.30;76.50
15765;DHT22;7983;50.744;7.086;2022-07-29T00:52:54;21.20;76.20
15765;DHT22;7983;50.744;7.086;2022-07-29T00:55:22;21.20;76.40
15765;DHT22;7983;50.744;7.086;2022-07-29T00:57:48;21.20;76.90
15765;DHT22;7983;50.744;7.086;2022-07-29T01:00:21;21.20;76.80
15765;DHT22;7983;50.744;7.086;2022-07-29T01:02:50;21.10;77.20
15765;DHT22;7983;50.744;7.086;2022-07-29T01:05:21;21.10;77.00
15765;DHT22;7983;50.744;7.086;2022-07-29T01:07:51;21.10;77.60
15765;DHT22;7983;50.744;7.086;2022-07-29T01:10:18;21.00;77.50
15765;DHT22;7983;50.744;7.086;2022-07-29T01:12:49;21.00;77.50
15765;DHT22;7983;50.744;7.086;2022-07-29T01:15:15;21.00;77.90
15765;DHT22;7983;50.744;7.086;2022-07-29T01:18:01;20.90;77.70
15765;DHT22;7983;50.744;7.086;2022-07-29T01:31:48;20.70;79.50
15765;DHT22;7983;50.744;7.086;2022-07-29T01:34:21;20.70;80.40
15765;DHT22;7983;50.744;7.086;2022-07-29T01:36:55;20.70;80.50
15765;DHT22;7983;50.744;7.086;2022-07-29T01:39:43;20.70;80.60
15765;DHT22;7983;50.744;7.086;2022-07-29T01:45:08;20.60;82.30
15765;DHT22;7983;50.744;7.086;2022-07-29T01:47:56;20.60;81.30
15765;DHT22;7983;50.744;7.086;2022-07-29T01:50:33;20.60;82.50
15765;DHT22;7983;50.744;7.086;2022-07-29T01:53:02;20.60;81.90
15765;DHT22;7983;50.744;7.086;2022-07-29T01:55:34;20.60;81.40
15765;DHT22;7983;50.744;7.086;2022-07-29T01:58:00;20.50;81.60
15765;DHT22;7983;50.744;7.086;2022-07-29T02:00:30;20.50;81.80
15765;DHT22;7983;50.744;7.086;2022-07-29T02:03:02;20.50;82.30
15765;DHT22;7983;50.744;7.086;2022-07-29T02:05:29;20.50;82.70
15765;DHT22;7983;50.744;7.086;2022-07-29T02:07:58;20.50;82.80
15765;DHT22;7983;50.744;7.086;2022-07-29T02:10:26;20.40;83.30
15765;DHT22;7983;50.744;7.086;2022-07-29T02:12:54;20.40;83.40
15765;DHT22;7983;50.744;7.086;2022-07-29T02:15:27;20.40;83.40
15765;DHT22;7983;50.744;7.086;2022-07-29T02:18:00;20.30;83.90
15765;DHT22;7983;50.744;7.086;2022-07-29T02:20:27;20.30;84.30
15765;DHT22;7983;50.744;7.086;2022-07-29T02:22:57;20.20;83.70
15765;DHT22;7983;50.744;7.086;2022-07-29T02:25:29;20.20;83.90
15765;DHT22;7983;50.744;7.086;2022-07-29T02:27:56;20.10;84.50
15765;DHT22;7983;50.744;7.086;2022-07-29T02:30:26;20.10;84.30
15765;DHT22;7983;50.744;7.086;2022-07-29T02:32:53;20.00;84.50
15765;DHT22;7983;50.744;7.086;2022-07-29T02:35:21;20.00;84.30
15765;DHT22;7983;50.744;7.086;2022-07-29T02:37:47;19.90;84.40
15765;DHT22;7983;50.744;7.086;2022-07-29T02:40:35;19.90;84.20
15765;DHT22;7983;50.744;7.086;2022-07-29T02:43:03;19.80;84.50
15765;DHT22;7983;50.744;7.086;2022-07-29T02:45:30;19.80;85.40
15765;DHT22;7983;50.744;7.086;2022-07-29T02:48:00;19.70;84.50
15765;DHT22;7983;50.744;7.086;2022-07-29T02:50:44;19.60;84.70
15765;DHT22;7983;50.744;7.086;2022-07-29T02:53:23;19.60;85.70
15765;DHT22;7983;50.744;7.086;2022-07-29T02:55:57;19.60;86.10
15765;DHT22;7983;50.744;7.086;2022-07-29T02:58:39;19.50;85.90
15765;DHT22;7983;50.744;7.086;2022-07-29T03:01:14;19.50;87.40
15765;DHT22;7983;50.744;7.086;2022-07-29T03:03:45;19.50;87.30
15765;DHT22;7983;50.744;7.086;2022-07-29T03:06:15;19.50;86.80
15765;DHT22;7983;50.744;7.086;2022-07-29T03:08:42;19.50;86.90
15765;DHT22;7983;50.744;7.086;2022-07-29T03:11:10;19.50;86.70
15765;DHT22;7983;50.744;7.086;2022-07-29T03:13:36;19.50;87.00
15765;DHT22;7983;50.744;7.086;2022-07-29T03:16:03;19.50;87.00
15765;DHT22;7983;50.744;7.086;2022-07-29T03:18:30;19.50;87.20
15765;DHT22;7983;50.744;7.086;2022-07-29T03:20:59;19.50;87.60
15765;DHT22;7983;50.744;7.086;2022-07-29T03:23:27;19.50;87.70
15765;DHT22;7983;50.744;7.086;2022-07-29T03:25:55;19.50;87.80
15765;DHT22;7983;50.744;7.086;2022-07-29T03:28:22;19.50;88.20
15765;DHT22;7983;50.744;7.086;2022-07-29T03:30:49;19.50;88.10
15765;DHT22;7983;50.744;7.086;2022-07-29T03:33:19;19.50;88.10
15765;DHT22;7983;50.744;7.086;2022-07-29T03:35:45;19.50;88.00
15765;DHT22;7983;50.744;7.086;2022-07-29T03:38:13;19.50;88.10
15765;DHT22;7983;50.744;7.086;2022-07-29T03:40:46;19.40;87.90
15765;DHT22;7983;50.744;7.086;2022-07-29T03:43:13;19.40;88.50
15765;DHT22;7983;50.744;7.086;2022-07-29T03:45:43;19.30;88.10
15765;DHT22;7983;50.744;7.086;2022-07-29T03:48:16;19.30;88.60
15765;DHT22;7983;50.744;7.086;2022-07-29T03:50:48;19.20;88.90
15765;DHT22;7983;50.744;7.086;2022-07-29T03:53:13;19.20;88.70
15765;DHT22;7983;50.744;7.086;2022-07-29T03:55:43;19.20;88.90
15765;DHT22;7983;50.744;7.086;2022-07-29T03:58:13;19.20;89.50
15765;DHT22;7983;50.744;7.086;2022-07-29T04:00:43;19.20;89.30
15765;DHT22;7983;50.744;7.086;2022-07-29T04:03:09;19.20;89.40
15765;DHT22;7983;50.744;7.086;2022-07-29T04:05:35;19.20;89.70
15765;DHT22;7983;50.744;7.086;2022-07-29T04:08:01;19.20;89.70
15765;DHT22;7983;50.744;7.086;2022-07-29T04:10:27;19.10;89.90
15765;DHT22;7983;50.744;7.086;2022-07-29T04:12:52;19.10;90.00
15765;DHT22;7983;50.744;7.086;2022-07-29T04:15:18;19.10;90.10
15765;DHT22;7983;50.744;7.086;2022-07-29T04:17:44;19.10;90.20
15765;DHT22;7983;50.744;7.086;2022-07-29T04:20:12;19.10;90.40
15765;DHT22;7983;50.744;7.086;2022-07-29T04:22:39;19.20;90.50
15765;DHT22;7983;50.744;7.086;2022-07-29T04:25:08;19.20;90.70
15765;DHT22;7983;50.744;7.086;2022-07-29T04:27:33;19.10;90.70
15765;DHT22;7983;50.744;7.086;2022-07-29T04:30:19;19.20;90.80
15765;DHT22;7983;50.744;7.086;2022-07-29T04:32:45;19.20;90.90
15765;DHT22;7983;50.744;7.086;2022-07-29T04:35:13;19.20;90.90
15765;DHT22;7983;50.744;7.086;2022-07-29T04:37:38;19.20;91.30
15765;DHT22;7983;50.744;7.086;2022-07-29T04:40:04;19.20;91.20
15765;DHT22;7983;50.744;7.086;2022-07-29T04:42:30;19.30;91.30
15765;DHT22;7983;50.744;7.086;2022-07-29T04:44:56;19.30;91.40
15765;DHT22;7983;50.744;7.086;2022-07-29T04:47:21;19.30;91.50
15765;DHT22;7983;50.744;7.086;2022-07-29T04:49:49;19.30;91.60
15765;DHT22;7983;50.744;7.086;2022-07-29T04:52:17;19.30;91.60
15765;DHT22;7983;50.744;7.086;2022-07-29T04:54:42;19.30;91.70
15765;DHT22;7983;50.744;7.086;2022-07-29T04:57:10;19.30;91.70
15765;DHT22;7983;50.744;7.086;2022-07-29T04:59:38;19.30;91.80
15765;DHT22;7983;50.744;7.086;2022-07-29T05:02:06;19.30;92.00
15765;DHT22;7983;50.744;7.086;2022-07-29T05:04:34;19.30;91.90
15765;DHT22;7983;50.744;7.086;2022-07-29T05:07:00;19.30;92.00
15765;DHT22;7983;50.744;7.086;2022-07-29T05:09:25;19.40;92.10
15765;DHT22;7983;50.744;7.086;2022-07-29T05:11:53;19.40;92.50
15765;DHT22;7983;50.744;7.086;2022-07-29T05:14:21;19.40;92.40
15765;DHT22;7983;50.744;7.086;2022-07-29T05:16:47;19.50;92.40
15765;DHT22;7983;50.744;7.086;2022-07-29T05:19:13;19.50;92.50
15765;DHT22;7983;50.744;7.086;2022-07-29T05:21:40;19.60;92.60
15765;DHT22;7983;50.744;7.086;2022-07-29T05:24:05;19.60;92.60
15765;DHT22;7983;50.744;7.086;2022-07-29T05:26:33;19.70;92.70
15765;DHT22;7983;50.744;7.086;2022-07-29T05:29:01;19.70;92.90
15765;DHT22;7983;50.744;7.086;2022-07-29T05:31:31;19.80;92.90
15765;DHT22;7983;50.744;7.086;2022-07-29T05:33:59;19.90;92.90
15765;DHT22;7983;50.744;7.086;2022-07-29T05:36:25;19.90;93.00
15765;DHT22;7983;50.744;7.086;2022-07-29T05:38:52;20.00;93.00
15765;DHT22;7983;50.744;7.086;2022-07-29T05:41:19;20.10;93.30
15765;DHT22;7983;50.744;7.086;2022-07-29T05:43:44;20.10;93.00
15765;DHT22;7983;50.744;7.086;2022-07-29T05:46:14;20.20;93.00
15765;DHT22;7983;50.744;7.086;2022-07-29T05:48:40;20.20;92.90
15765;DHT22;7983;50.744;7.086;2022-07-29T05:51:08;20.30;92.90
15765;DHT22;7983;50.744;7.086;2022-07-29T05:53:34;20.30;92.80
15765;DHT22;7983;50.744;7.086;2022-07-29T05:56:03;20.30;92.80
15765;DHT22;7983;50.744;7.086;2022-07-29T05:58:30;20.30;92.80
15765;DHT22;7983;50.744;7.086;2022-07-29T06:00:55;20.40;92.70
15765;DHT22;7983;50.744;7.086;2022-07-29T06:03:29;20.40;92.50
15765;DHT22;7983;50.744;7.086;2022-07-29T06:05:55;20.40;92.60
15765;DHT22;7983;50.744;7.086;2022-07-29T06:08:23;20.40;92.50
15765;DHT22;7983;50.744;7.086;2022-07-29T06:10:49;20.50;92.50
15765;DHT22;7983;50.744;7.086;2022-07-29T06:13:16;20.50;92.40
15765;DHT22;7983;50.744;7.086;2022-07-29T06:15:42;20.50;92.30
15765;DHT22;7983;50.744;7.086;2022-07-29T06:18:08;20.40;92.20
15765;DHT22;7983;50.744;7.086;2022-07-29T06:20:35;20.40;92.20
15765;DHT22;7983;50.744;7.086;2022-07-29T06:23:03;20.40;92.30
15765;DHT22;7983;50.744;7.086;2022-07-29T06:25:30;20.30;92.30
15765;DHT22;7983;50.744;7.086;2022-07-29T06:27:56;20.30;92.40
15765;DHT22;7983;50.744;7.086;2022-07-29T06:30:24;20.30;92.50
15765;DHT22;7983;50.744;7.086;2022-07-29T06:32:49;20.40;92.70
15765;DHT22;7983;50.744;7.086;2022-07-29T06:35:18;20.40;92.80
15765;DHT22;7983;50.744;7.086;2022-07-29T06:37:49;20.50;92.90
15765;DHT22;7983;50.744;7.086;2022-07-29T06:40:14;20.60;92.90
15765;DHT22;7983;50.744;7.086;2022-07-29T06:43:01;20.70;92.90
15765;DHT22;7983;50.744;7.086;2022-07-29T06:45:26;20.80;92.90
15765;DHT22;7983;50.744;7.086;2022-07-29T06:47:52;20.90;92.80
15765;DHT22;7983;50.744;7.086;2022-07-29T06:50:18;21.00;92.70
15765;DHT22;7983;50.744;7.086;2022-07-29T06:52:44;21.10;92.70
15765;DHT22;7983;50.744;7.086;2022-07-29T06:55:10;21.10;92.60
15765;DHT22;7983;50.744;7.086;2022-07-29T06:57:35;21.20;92.60
15765;DHT22;7983;50.744;7.086;2022-07-29T07:00:05;21.30;92.70
15765;DHT22;7983;50.744;7.086;2022-07-29T07:02:30;21.40;92.70
15765;DHT22;7983;50.744;7.086;2022-07-29T07:04:56;21.50;92.80
15765;DHT22;7983;50.744;7.086;2022-07-29T07:07:22;21.60;92.70
15765;DHT22;7983;50.744;7.086;2022-07-29T07:09:48;21.70;92.70
15765;DHT22;7983;50.744;7.086;2022-07-29T07:12:13;21.80;92.60
15765;DHT22;7983;50.744;7.086;2022-07-29T07:14:41;21.90;92.50
15765;DHT22;7983;50.744;7.086;2022-07-29T07:17:07;22.00;92.20
15765;DHT22;7983;50.744;7.086;2022-07-29T07:19:35;22.10;92.10
15765;DHT22;7983;50.744;7.086;2022-07-29T07:22:01;22.20;91.90
15765;DHT22;7983;50.744;7.086;2022-07-29T07:24:27;22.30;91.90
15765;DHT22;7983;50.744;7.086;2022-07-29T07:26:52;22.30;91.80
15765;DHT22;7983;50.744;7.086;2022-07-29T07:29:21;22.40;91.70
15765;DHT22;7983;50.744;7.086;2022-07-29T07:31:49;22.50;91.50
15765;DHT22;7983;50.744;7.086;2022-07-29T07:34:14;22.50;91.30
15765;DHT22;7983;50.744;7.086;2022-07-29T07:36:40;22.60;91.20
15765;DHT22;7983;50.744;7.086;2022-07-29T07:39:06;22.60;91.00
15765;DHT22;7983;50.744;7.086;2022-07-29T07:41:32;22.70;90.70
15765;DHT22;7983;50.744;7.086;2022-07-29T07:43:57;22.70;90.60
15765;DHT22;7983;50.744;7.086;2022-07-29T07:46:23;22.70;90.40
15765;DHT22;7983;50.744;7.086;2022-07-29T07:48:49;22.90;90.40
15765;DHT22;7983;50.744;7.086;2022-07-29T07:51:14;22.90;90.40
15765;DHT22;7983;50.744;7.086;2022-07-29T07:53:40;23.00;90.40
15765;DHT22;7983;50.744;7.086;2022-07-29T07:56:06;23.00;90.30
15765;DHT22;7983;50.744;7.086;2022-07-29T07:58:32;23.00;90.40
15765;DHT22;7983;50.744;7.086;2022-07-29T08:00:58;23.10;90.40
15765;DHT22;7983;50.744;7.086;2022-07-29T08:03:25;23.10;90.40
15765;DHT22;7983;50.744;7.086;2022-07-29T08:05:51;23.20;90.50
15765;DHT22;7983;50.744;7.086;2022-07-29T08:08:19;23.20;90.40
15765;DHT22;7983;50.744;7.086;2022-07-29T08:10:46;23.30;90.50
15765;DHT22;7983;50.744;7.086;2022-07-29T08:13:18;23.40;90.40
15765;DHT22;7983;50.744;7.086;2022-07-29T08:15:44;23.50;90.30
15765;DHT22;7983;50.744;7.086;2022-07-29T08:18:13;23.60;90.60
15765;DHT22;7983;50.744;7.086;2022-07-29T08:20:41;23.60;90.00
15765;DHT22;7983;50.744;7.086;2022-07-29T08:23:07;23.70;90.10
15765;DHT22;7983;50.744;7.086;2022-07-29T08:25:38;23.70;89.80
15765;DHT22;7983;50.744;7.086;2022-07-29T08:28:05;23.70;89.70
15765;DHT22;7983;50.744;7.086;2022-07-29T08:30:35;23.80;89.40
15765;DHT22;7983;50.744;7.086;2022-07-29T08:33:01;23.80;89.50
15765;DHT22;7983;50.744;7.086;2022-07-29T08:35:27;23.80;89.50
15765;DHT22;7983;50.744;7.086;2022-07-29T08:37:53;23.90;89.50
15765;DHT22;7983;50.744;7.086;2022-07-29T08:40:22;23.90;89.30
15765;DHT22;7983;50.744;7.086;2022-07-29T08:42:51;24.00;89.20
15765;DHT22;7983;50.744;7.086;2022-07-29T08:45:16;24.00;88.90
15765;DHT22;7983;50.744;7.086;2022-07-29T08:47:45;24.00;88.90
15765;DHT22;7983;50.744;7.086;2022-07-29T08:50:11;24.10;88.60
15765;DHT22;7983;50.744;7.086;2022-07-29T08:52:39;24.10;88.20
15765;DHT22;7983;50.744;7.086;2022-07-29T08:55:11;24.10;88.50
15765;DHT22;7983;50.744;7.086;2022-07-29T08:57:39;24.10;88.20
15765;DHT22;7983;50.744;7.086;2022-07-29T09:00:08;24.20;88.30
15765;DHT22;7983;50.744;7.086;2022-07-29T09:02:39;24.20;88.10
15765;DHT22;7983;50.744;7.086;2022-07-29T09:05:06;24.30;87.60
15765;DHT22;7983;50.744;7.086;2022-07-29T09:07:34;24.40;87.50
15765;DHT22;7983;50.744;7.086;2022-07-29T09:10:04;24.40;87.40
15765;DHT22;7983;50.744;7.086;2022-07-29T09:12:34;24.50;87.10
15765;DHT22;7983;50.744;7.086;2022-07-29T09:15:03;24.50;86.70
15765;DHT22;7983;50.744;7.086;2022-07-29T09:17:48;24.60;86.60
15765;DHT22;7983;50.744;7.086;2022-07-29T09:20:22;24.60;85.90
15765;DHT22;7983;50.744;7.086;2022-07-29T09:22:51;24.60;86.00
15765;DHT22;7983;50.744;7.086;2022-07-29T09:25:34;24.70;86.20
15765;DHT22;7983;50.744;7.086;2022-07-29T09:30:50;24.80;85.90
15765;DHT22;7983;50.744;7.086;2022-07-29T09:33:16;24.90;85.40
15765;DHT22;7983;50.744;7.086;2022-07-29T09:35:42;24.90;86.20
15765;DHT22;7983;50.744;7.086;2022-07-29T09:38:14;25.00;86.40
15765;DHT22;7983;50.744;7.086;2022-07-29T09:40:40;25.10;86.20
15765;DHT22;7983;50.744;7.086;2022-07-29T09:43:13;25.10;86.30
15765;DHT22;7983;50.744;7.086;2022-07-29T09:45:41;25.20;85.70
15765;DHT22;7983;50.744;7.086;2022-07-29T09:48:22;25.20;85.80
15765;DHT22;7983;50.744;7.086;2022-07-29T09:50:49;25.20;85.20
15765;DHT22;7983;50.744;7.086;2022-07-29T09:53:33;25.30;85.60
15765;DHT22;7983;50.744;7.086;2022-07-29T09:56:02;25.30;84.80
15765;DHT22;7983;50.744;7.086;2022-07-29T09:58:28;25.30;85.10
15765;DHT22;7983;50.744;7.086;2022-07-29T10:00:54;25.30;84.90
15765;DHT22;7983;50.744;7.086;2022-07-29T10:03:20;25.40;84.70
15765;DHT22;7983;50.744;7.086;2022-07-29T10:05:48;25.40;85.00
15765;DHT22;7983;50.744;7.086;2022-07-29T10:08:31;25.50;85.20
15765;DHT22;7983;50.744;7.086;2022-07-29T10:11:15;25.60;85.30
15765;DHT22;7983;50.744;7.086;2022-07-29T10:13:43;25.80;84.30
15765;DHT22;7983;50.744;7.086;2022-07-29T10:16:12;25.90;85.00
15765;DHT22;7983;50.744;7.086;2022-07-29T10:18:41;26.00;84.70
15765;DHT22;7983;50.744;7.086;2022-07-29T10:21:09;26.20;84.30
15765;DHT22;7983;50.744;7.086;2022-07-29T10:23:36;26.30;83.90
15765;DHT22;7983;50.744;7.086;2022-07-29T10:26:04;26.40;84.00
15765;DHT22;7983;50.744;7.086;2022-07-29T10:28:31;26.50;83.90
15765;DHT22;7983;50.744;7.086;2022-07-29T10:31:06;26.60;83.60
15765;DHT22;7983;50.744;7.086;2022-07-29T10:33:42;26.70;82.60
15765;DHT22;7983;50.744;7.086;2022-07-29T10:36:27;26.90;82.90
15765;DHT22;7983;50.744;7.086;2022-07-29T10:39:24;27.20;82.10
15765;DHT22;7983;50.744;7.086;2022-07-29T10:42:15;27.40;81.70
15765;DHT22;7983;50.744;7.086;2022-07-29T10:44:45;27.70;81.10
15765;DHT22;7983;50.744;7.086;2022-07-29T10:47:25;27.90;81.30
15765;DHT22;7983;50.744;7.086;2022-07-29T10:49:57;28.10;79.40
15765;DHT22;7983;50.744;7.086;2022-07-29T10:52:24;28.10;79.40
15765;DHT22;7983;50.744;7.086;2022-07-29T10:54:53;28.20;81.00
15765;DHT22;7983;50.744;7.086;2022-07-29T11:05:09;28.70;77.30
15765;DHT22;7983;50.744;7.086;2022-07-29T11:07:37;28.80;76.50
15765;DHT22;7983;50.744;7.086;2022-07-29T11:15:10;28.90;75.80
15765;DHT22;7983;50.744;7.086;2022-07-29T11:20:50;28.90;72.30
15765;DHT22;7983;50.744;7.086;2022-07-29T11:23:32;28.90;73.10
15765;DHT22;7983;50.744;7.086;2022-07-29T11:26:17;28.90;71.90
15765;DHT22;7983;50.744;7.086;2022-07-29T11:29:02;28.90;73.20
15765;DHT22;7983;50.744;7.086;2022-07-29T11:39:39;29.20;71.70
15765;DHT22;7983;50.744;7.086;2022-07-29T11:47:24;29.50;71.70
15765;DHT22;7983;50.744;7.086;2022-07-29T11:49:51;29.60;72.10
15765;DHT22;7983;50.744;7.086;2022-07-29T11:52:20;29.70;71.90
15765;DHT22;7983;50.744;7.086;2022-07-29T11:54:50;29.70;71.10
15765;DHT22;7983;50.744;7.086;2022-07-29T11:57:19;29.80;69.10
15765;DHT22;7983;50.744;7.086;2022-07-29T11:59:46;29.90;70.30
15765;DHT22;7983;50.744;7.086;2022-07-29T12:02:13;29.90;68.40
15765;DHT22;7983;50.744;7.086;2022-07-29T12:04:49;30.00;68.30
15765;DHT22;7983;50.744;7.086;2022-07-29T12:07:17;30.00;63.80
15765;DHT22;7983;50.744;7.086;2022-07-29T12:09:52;29.90;66.60
15765;DHT22;7983;50.744;7.086;2022-07-29T12:12:24;29.70;65.20
15765;DHT22;7983;50.744;7.086;2022-07-29T12:14:50;29.60;66.70
15765;DHT22;7983;50.744;7.086;2022-07-29T12:17:34;29.70;67.10
15765;DHT22;7983;50.744;7.086;2022-07-29T12:20:04;29.70;66.30
15765;DHT22;7983;50.744;7.086;2022-07-29T12:22:33;29.90;66.40
15765;DHT22;7983;50.744;7.086;2022-07-29T12:25:04;30.00;66.40
15765;DHT22;7983;50.744;7.086;2022-07-29T12:27:31;30.00;65.60
15765;DHT22;7983;50.744;7.086;2022-07-29T12:29:58;30.10;65.30
15765;DHT22;7983;50.744;7.086;2022-07-29T12:32:42;30.20;64.40
15765;DHT22;7983;50.744;7.086;2022-07-29T12:35:11;30.30;64.10
15765;DHT22;7983;50.744;7.086;2022-07-29T12:37:38;30.40;64.70
15765;DHT22;7983;50.744;7.086;2022-07-29T12:40:08;30.50;64.50
15765;DHT22;7983;50.744;7.086;2022-07-29T12:42:34;30.50;64.70
15765;DHT22;7983;50.744;7.086;2022-07-29T12:45:00;30.60;64.90
15765;DHT22;7983;50.744;7.086;2022-07-29T12:47:27;30.70;65.10
15765;DHT22;7983;50.744;7.086;2022-07-29T12:50:14;30.80;63.40
15765;DHT22;7983;50.744;7.086;2022-07-29T12:52:43;30.80;62.50
15765;DHT22;7983;50.744;7.086;2022-07-29T12:55:15;30.80;62.40
15765;DHT22;7983;50.744;7.086;2022-07-29T12:57:48;30.70;62.10
15765;DHT22;7983;50.744;7.086;2022-07-29T13:00:16;30.60;61.20
15765;DHT22;7983;50.744;7.086;2022-07-29T13:02:55;30.50;61.10
15765;DHT22;7983;50.744;7.086;2022-07-29T13:05:23;30.40;59.20
15765;DHT22;7983;50.744;7.086;2022-07-29T13:07:50;30.30;60.60
15765;DHT22;7983;50.744;7.086;2022-07-29T13:10:20;30.30;60.20
15765;DHT22;7983;50.744;7.086;2022-07-29T13:13:08;30.20;59.80
15765;DHT22;7983;50.744;7.086;2022-07-29T13:15:41;30.10;58.80
15765;DHT22;7983;50.744;7.086;2022-07-29T13:18:27;30.10;60.60
15765;DHT22;7983;50.744;7.086;2022-07-29T13:20:55;30.00;60.00
15765;DHT22;7983;50.744;7.086;2022-07-29T13:23:23;29.90;60.50
15765;DHT22;7983;50.744;7.086;2022-07-29T13:25:49;29.90;60.30
15765;DHT22;7983;50.744;7.086;2022-07-29T13:28:15;29.90;60.90
15765;DHT22;7983;50.744;7.086;2022-07-29T13:30:41;29.80;60.80
15765;DHT22;7983;50.744;7.086;2022-07-29T13:33:08;29.70;60.50
15765;DHT22;7983;50.744;7.086;2022-07-29T13:35:33;29.80;61.20
15765;DHT22;7983;50.744;7.086;2022-07-29T13:37:59;29.80;61.40
15765;DHT22;7983;50.744;7.086;2022-07-29T13:40:29;29.90;61.30
15765;DHT22;7983;50.744;7.086;2022-07-29T13:42:57;29.90;60.80
15765;DHT22;7983;50.744;7.086;2022-07-29T13:45:23;30.00;61.10
15765;DHT22;7983;50.744;7.086;2022-07-29T13:47:49;30.00;60.70
15765;DHT22;7983;50.744;7.086;2022-07-29T13:50:16;30.00;60.70
15765;DHT22;7983;50.744;7.086;2022-07-29T13:52:44;30.00;61.40
15765;DHT22;7983;50.744;7.086;2022-07-29T13:55:13;30.00;60.30
15765;DHT22;7983;50.744;7.086;2022-07-29T13:57:39;30.00;59.70
15765;DHT22;7983;50.744;7.086;2022-07-29T14:00:05;30.10;60.00
15765;DHT22;7983;50.744;7.086;2022-07-29T14:02:31;30.10;59.90
15765;DHT22;7983;50.744;7.086;2022-07-29T14:05:00;30.30;59.60
15765;DHT22;7983;50.744;7.086;2022-07-29T14:07:26;30.30;59.80
15765;DHT22;7983;50.744;7.086;2022-07-29T14:09:53;30.50;59.10
15765;DHT22;7983;50.744;7.086;2022-07-29T14:12:19;30.60;59.10
15765;DHT22;7983;50.744;7.086;2022-07-29T14:14:47;30.80;59.30
15765;DHT22;7983;50.744;7.086;2022-07-29T14:17:15;31.00;59.20
15765;DHT22;7983;50.744;7.086;2022-07-29T14:19:46;31.20;58.00
15765;DHT22;7983;50.744;7.086;2022-07-29T14:22:14;31.30;58.50
15765;DHT22;7983;50.744;7.086;2022-07-29T14:24:39;31.40;58.40
15765;DHT22;7983;50.744;7.086;2022-07-29T14:27:06;31.50;57.50
15765;DHT22;7983;50.744;7.086;2022-07-29T14:29:33;31.60;57.50
15765;DHT22;7983;50.744;7.086;2022-07-29T14:31:58;31.70;56.70
15765;DHT22;7983;50.744;7.086;2022-07-29T14:34:26;31.70;56.50
15765;DHT22;7983;50.744;7.086;2022-07-29T14:36:57;31.70;56.40
15765;DHT22;7983;50.744;7.086;2022-07-29T14:39:23;31.70;56.20
15765;DHT22;7983;50.744;7.086;2022-07-29T14:41:51;31.60;56.00
15765;DHT22;7983;50.744;7.086;2022-07-29T14:44:19;31.50;55.30
15765;DHT22;7983;50.744;7.086;2022-07-29T14:46:47;31.40;55.90
15765;DHT22;7983;50.744;7.086;2022-07-29T14:49:15;31.20;55.90
15765;DHT22;7983;50.744;7.086;2022-07-29T14:51:40;31.20;56.40
15765;DHT22;7983;50.744;7.086;2022-07-29T14:54:09;31.20;56.50
15765;DHT22;7983;50.744;7.086;2022-07-29T14:56:34;31.20;56.60
15765;DHT22;7983;50.744;7.086;2022-07-29T14:59:02;31.30;56.80
15765;DHT22;7983;50.744;7.086;2022-07-29T15:01:28;31.30;56.50
15765;DHT22;7983;50.744;7.086;2022-07-29T15:03:54;31.40;56.80
15765;DHT22;7983;50.744;7.086;2022-07-29T15:06:22;31.40;56.70
15765;DHT22;7983;50.744;7.086;2022-07-29T15:08:47;31.50;56.80
15765;DHT22;7983;50.744;7.086;2022-07-29T15:11:15;31.50;56.50
15765;DHT22;7983;50.744;7.086;2022-07-29T15:13:41;31.50;56.60
15765;DHT22;7983;50.744;7.086;2022-07-29T15:16:07;31.50;56.80
15765;DHT22;7983;50.744;7.086;2022-07-29T15:18:36;31.60;56.50
15765;DHT22;7983;50.744;7.086;2022-07-29T15:21:06;31.60;56.10
15765;DHT22;7983;50.744;7.086;2022-07-29T15:23:33;31.60;56.30
15765;DHT22;7983;50.744;7.086;2022-07-29T15:26:02;31.60;56.00
15765;DHT22;7983;50.744;7.086;2022-07-29T15:28:30;31.50;56.00
15765;DHT22;7983;50.744;7.086;2022-07-29T15:30:56;31.40;56.10
15765;DHT22;7983;50.744;7.086;2022-07-29T15:33:22;31.30;56.10
15765;DHT22;7983;50.744;7.086;2022-07-29T15:35:48;31.20;56.00
15765;DHT22;7983;50.744;7.086;2022-07-29T15:38:16;31.20;56.20
15765;DHT22;7983;50.744;7.086;2022-07-29T15:40:44;31.10;56.20
15765;DHT22;7983;50.744;7.086;2022-07-29T15:43:14;31.10;56.10
15765;DHT22;7983;50.744;7.086;2022-07-29T15:45:42;31.00;56.20
15765;DHT22;7983;50.744;7.086;2022-07-29T15:48:27;30.80;55.70
15765;DHT22;7983;50.744;7.086;2022-07-29T15:50:57;30.70;55.90
15765;DHT22;7983;50.744;7.086;2022-07-29T15:53:23;30.50;55.90
15765;DHT22;7983;50.744;7.086;2022-07-29T15:55:51;30.40;56.00
15765;DHT22;7983;50.744;7.086;2022-07-29T15:58:19;30.30;56.10
15765;DHT22;7983;50.744;7.086;2022-07-29T16:00:45;30.20;55.70
15765;DHT22;7983;50.744;7.086;2022-07-29T16:03:11;30.20;55.80
15765;DHT22;7983;50.744;7.086;2022-07-29T16:05:37;30.10;55.90
15765;DHT22;7983;50.744;7.086;2022-07-29T16:08:03;30.00;55.80
15765;DHT22;7983;50.744;7.086;2022-07-29T16:10:31;30.00;56.20
15765;DHT22;7983;50.744;7.086;2022-07-29T16:12:56;30.00;56.10
15765;DHT22;7983;50.744;7.086;2022-07-29T16:15:22;30.00;55.90
15765;DHT22;7983;50.744;7.086;2022-07-29T16:17:52;29.90;55.70
15765;DHT22;7983;50.744;7.086;2022-07-29T16:20:18;29.90;55.70
15765;DHT22;7983;50.744;7.086;2022-07-29T16:22:45;29.90;55.80
15765;DHT22;7983;50.744;7.086;2022-07-29T16:25:11;29.90;55.60
15765;DHT22;7983;50.744;7.086;2022-07-29T16:27:38;29.80;55.20
15765;DHT22;7983;50.744;7.086;2022-07-29T16:30:07;29.70;55.10
15765;DHT22;7983;50.744;7.086;2022-07-29T16:32:36;29.60;55.20
15765;DHT22;7983;50.744;7.086;2022-07-29T16:35:02;29.40;55.30
15765;DHT22;7983;50.744;7.086;2022-07-29T16:37:29;29.30;55.60
15765;DHT22;7983;50.744;7.086;2022-07-29T16:40:00;29.20;55.60
15765;DHT22;7983;50.744;7.086;2022-07-29T16:42:26;29.10;55.70